Time;durP1;ratioP1;P1;durP2;ratioP2;P2;SDS_P1;SDS_P2;PMS_P1;PMS_P2;Temp;Humidity;BMP_temperature;BMP_pressure;BME280_temperature;BME280_humidity;BME280_pressure;Samples;Min_cycle;Max_cycle;Signal;HPM_P1;HPM_P2
2022/05/13 00:02:24;;;;;;;;;;;;;;;19.41;66.97;101050.97;7417108;19;1423;-80
2022/05/13 00:04:54;;;;;;;;;;;;;;;19.41;66.66;101045.59;7411607;19;1429;-82
2022/05/13 00:07:24;;;;;;;;;;;;;;;19.41;66.44;101039.41;7417922;19;1848;-80
2022/05/13 00:10:00;;;;;;;;;;;;;;;19.37;66.89;101038.81;7417016;19;944;-81
2022/05/13 00:12:31;;;;;;;;;;;;;;;19.38;66.66;101032.47;7418908;19;1653;-81
2022/05/13 00:15:08;;;;;;;;;;;;;;;19.37;66.37;101043.31;7415352;19;1406;-80
2022/05/13 00:17:37;;;;;;;;;;;;;;;19.38;66.84;101039.69;7416769;19;1308;-80
2022/05/13 00:20:07;;;;;;;;;;;;;;;19.37;66.73;101043.31;7416172;19;1842;-81
2022/05/13 00:22:38;;;;;;;;;;;;;;;19.36;66.74;101033.56;7418958;19;1019;-80
2022/05/13 00:25:17;;;;;;;;;;;;;;;19.38;66.54;101037.00;7416773;19;1792;-80
2022/05/13 00:27:50;;;;;;;;;;;;;;;19.35;66.72;101038.09;7431290;19;1736;-80
2022/05/13 00:30:21;;;;;;;;;;;;;;;19.35;66.69;101037.25;7416625;19;1046;-81
2022/05/13 00:33:12;;;;;;;;;;;;;;;19.34;66.75;101023.00;7413802;19;1773;-81
2022/05/13 00:35:51;;;;;;;;;;;;;;;19.35;66.50;101034.56;7413796;19;1663;-80
2022/05/13 00:38:20;;;;;;;;;;;;;;;19.36;66.71;101030.88;7415618;19;1416;-81
2022/05/13 00:40:53;;;;;;;;;;;;;;;19.35;66.49;101038.09;7410079;19;1845;-80
2022/05/13 00:43:37;;;;;;;;;;;;;;;19.35;66.44;101034.56;7416388;19;944;-81
2022/05/13 00:46:26;;;;;;;;;;;;;;;19.33;66.71;101021.28;7415597;19;1172;-80
2022/05/13 00:48:55;;;;;;;;;;;;;;;19.34;66.53;101035.53;7416209;19;981;-80
2022/05/13 00:51:33;;;;;;;;;;;;;;;19.36;66.64;101030.88;7415728;19;1030;-80
2022/05/13 00:54:14;;;;;;;;;;;;;;;19.34;66.48;101039.09;7413223;19;1567;-80
2022/05/13 00:56:51;;;;;;;;;;;;;;;19.35;66.88;101032.72;7413883;19;1668;-81
2022/05/13 00:59:31;;;;;;;;;;;;;;;19.34;66.53;101035.53;7416189;19;1576;-81
2022/05/13 01:02:05;;;;;;;;;;;;;;;19.32;66.59;101022.28;7413041;19;1814;-80
2022/05/13 01:04:36;;;;;;;;;;;;;;;19.35;66.62;101037.25;7413863;19;1385;-80
2022/05/13 01:07:08;;;;;;;;;;;;;;;19.33;66.84;101032.00;7417075;19;1066;-80
2022/05/13 01:09:44;;;;;;;;;;;;;;;19.33;66.69;101037.38;7412668;19;1030;-81
2022/05/13 01:12:24;;;;;;;;;;;;;;;19.33;66.62;101040.06;7410848;19;1397;-81
2022/05/13 01:15:00;;;;;;;;;;;;;;;19.35;66.37;101035.41;7413923;19;1027;-80
2022/05/13 01:20:20;;;;;;;;;;;;;;;19.33;66.67;101026.66;7413370;19;1576;-80
2022/05/13 01:22:54;;;;;;;;;;;;;;;19.34;66.60;101038.22;7412601;19;1467;-80
2022/05/13 01:25:24;;;;;;;;;;;;;;;19.32;66.32;101024.97;7415084;19;1691;-80
2022/05/13 01:28:00;;;;;;;;;;;;;;;19.32;66.53;101024.97;7413274;19;1414;-83
2022/05/13 01:30:32;;;;;;;;;;;;;;;19.33;66.75;101039.22;7411166;19;1405;-80
2022/05/13 01:33:13;;;;;;;;;;;;;;;19.32;66.66;101033.00;7415309;19;1628;-80
2022/05/13 01:35:47;;;;;;;;;;;;;;;19.31;66.53;101007.16;7412728;19;1800;-80
2022/05/13 01:38:29;;;;;;;;;;;;;;;19.31;66.51;101023.25;7411283;19;1640;-80
2022/05/13 01:40:59;;;;;;;;;;;;;;;19.32;66.65;101024.09;7412504;19;1851;-80
2022/05/13 01:43:27;;;;;;;;;;;;;;;19.32;66.48;101029.44;7413024;19;1369;-80
2022/05/13 01:46:00;;;;;;;;;;;;;;;19.31;66.37;101033.13;7413558;19;1556;-80
2022/05/13 01:48:36;;;;;;;;;;;;;;;19.31;66.46;101022.41;7411093;19;1683;-80
2022/05/13 01:51:05;;;;;;;;;;;;;;;19.30;66.26;101034.09;7412964;19;1008;-80
2022/05/13 01:53:37;;;;;;;;;;;;;;;19.31;66.76;101017.88;7409343;19;1770;-80
2022/05/13 01:56:07;;;;;;;;;;;;;;;19.27;66.54;101006.56;7411111;19;1617;-80
2022/05/13 01:58:41;;;;;;;;;;;;;;;19.27;66.30;101014.59;7416642;19;1624;-79
2022/05/13 02:01:10;;;;;;;;;;;;;;;19.29;66.23;101035.94;7409814;19;3466;-58
2022/05/13 02:03:48;;;;;;;;;;;;;;;19.29;66.56;101027.88;7399154;19;1606;-59
2022/05/13 02:06:18;;;;;;;;;;;;;;;19.28;66.48;101019.00;7404183;19;1248;-59
2022/05/13 02:08:49;;;;;;;;;;;;;;;19.28;66.43;101018.16;7401406;19;1462;-58
2022/05/13 02:11:19;;;;;;;;;;;;;;;19.29;66.39;101014.47;7403958;19;1571;-58
2022/05/13 02:13:47;;;;;;;;;;;;;;;19.29;66.12;101009.13;7401954;19;1631;-58
2022/05/13 02:16:15;;;;;;;;;;;;;;;19.30;66.57;101020.69;7401160;19;1544;-58
2022/05/13 02:18:44;;;;;;;;;;;;;;;19.27;66.39;101009.25;7403042;19;1571;-59
2022/05/13 02:21:12;;;;;;;;;;;;;;;19.31;66.57;101039.34;7404560;19;1866;-59
2022/05/13 02:23:41;;;;;;;;;;;;;;;19.30;66.57;101023.38;7409162;19;1615;-58
2022/05/13 02:26:13;;;;;;;;;;;;;;;19.30;66.34;101042.13;7409249;19;1880;-59
2022/05/13 02:28:42;;;;;;;;;;;;;;;19.28;66.17;101039.63;7410235;19;1306;-58
2022/05/13 02:31:11;;;;;;;;;;;;;;;19.26;66.39;101020.97;7408557;19;1323;-59
2022/05/13 02:33:40;;;;;;;;;;;;;;;19.28;66.11;101039.63;7408086;19;1519;-58
2022/05/13 02:36:08;;;;;;;;;;;;;;;19.26;66.33;101022.81;7409704;19;1315;-58
2022/05/13 02:38:37;;;;;;;;;;;;;;;19.27;66.21;101016.44;7408336;19;1450;-59
2022/05/13 02:41:15;;;;;;;;;;;;;;;19.26;66.16;101025.50;7407867;19;1850;-58
2022/05/13 02:43:48;;;;;;;;;;;;;;;19.24;66.56;101020.25;7408835;19;1432;-59
2022/05/13 02:46:17;;;;;;;;;;;;;;;19.25;66.20;101026.44;7408088;19;1420;-60
2022/05/13 02:48:45;;;;;;;;;;;;;;;19.25;66.17;101027.28;7409765;19;1320;-59
2022/05/13 02:51:14;;;;;;;;;;;;;;;19.26;66.27;101022.81;7410598;19;1436;-59
2022/05/13 02:53:42;;;;;;;;;;;;;;;19.26;66.48;101036.22;7407713;19;1587;-58
2022/05/13 02:56:11;;;;;;;;;;;;;;;19.23;66.48;101031.09;7408958;19;1439;-60
2022/05/13 02:58:41;;;;;;;;;;;;;;;19.26;66.18;101018.28;7408512;19;1513;-58
2022/05/13 03:01:13;;;;;;;;;;;;;;;19.24;66.35;101024.78;7406376;19;1859;-59
2022/05/13 03:03:42;;;;;;;;;;;;;;;19.24;66.26;101022.94;7407590;19;1594;-59
2022/05/13 03:06:11;;;;;;;;;;;;;;;19.26;66.30;101030.84;7409724;19;1544;-60
2022/05/13 03:08:39;;;;;;;;;;;;;;;19.26;66.65;101041.56;7409712;19;1530;-58
2022/05/13 03:11:09;;;;;;;;;;;;;;;19.23;66.32;101031.09;7409797;19;1707;-59
2022/05/13 03:13:38;;;;;;;;;;;;;;;19.23;66.35;101031.09;7408445;19;1510;-59
2022/05/13 03:16:07;;;;;;;;;;;;;;;19.24;66.56;101022.09;7407901;19;1537;-58
2022/05/13 03:18:39;;;;;;;;;;;;;;;19.24;66.33;101036.34;7405329;19;1327;-59
2022/05/13 03:21:07;;;;;;;;;;;;;;;19.26;66.24;101046.94;7409472;19;1842;-60
2022/05/13 03:23:36;;;;;;;;;;;;;;;19.23;66.47;101031.09;7405538;19;1667;-59
2022/05/13 03:26:04;;;;;;;;;;;;;;;19.24;66.43;101038.19;7407342;19;1557;-58
2022/05/13 03:28:32;;;;;;;;;;;;;;;19.24;66.16;101036.34;7407930;19;1542;-59
2022/05/13 03:31:01;;;;;;;;;;;;;;;19.23;66.28;101037.31;7407386;19;1533;-59
2022/05/13 03:33:29;;;;;;;;;;;;;;;19.26;66.21;101030.84;7404420;19;1391;-58
2022/05/13 03:36:00;;;;;;;;;;;;;;;19.26;66.29;101036.22;7409101;19;995;-59
2022/05/13 03:38:29;;;;;;;;;;;;;;;19.27;65.92;101046.78;7405262;19;1778;-59
2022/05/13 03:40:57;;;;;;;;;;;;;;;19.27;66.18;101043.25;7407715;19;1550;-59
2022/05/13 03:43:25;;;;;;;;;;;;;;;19.27;65.99;101044.09;7405040;19;1846;-60
2022/05/13 03:45:54;;;;;;;;;;;;;;;19.31;65.91;101038.50;7408773;19;1585;-59
2022/05/13 03:48:22;;;;;;;;;;;;;;;19.33;65.75;101058.81;7408315;19;1663;-59
2022/05/13 03:50:50;;;;;;;;;;;;;;;19.34;65.71;101056.97;7407842;19;1568;-58
2022/05/13 03:53:21;;;;;;;;;;;;;;;19.36;65.57;101063.06;7404178;19;1700;-59
2022/05/13 03:55:50;;;;;;;;;;;;;;;19.37;65.21;101049.53;7408178;19;1603;-59
2022/05/13 03:58:18;;;;;;;;;;;;;;;19.41;65.46;101067.06;7406298;19;1606;-58
2022/05/13 04:00:47;;;;;;;;;;;;;;;19.43;65.23;101070.47;7406238;19;1627;-58
2022/05/13 04:03:16;;;;;;;;;;;;;;;19.47;65.35;101077.25;7405916;19;1845;-60
2022/05/13 04:11:09;;;;;;;;;;;;;;;19.52;65.29;101076.00;7407495;19;1380;-58
2022/05/13 04:16:18;;;;;;;;;;;;;;;19.57;65.46;101073.81;7405835;19;1299;-59
2022/05/13 04:18:49;;;;;;;;;;;;;;;19.59;65.18;101066.47;7407344;19;1439;-58
2022/05/13 04:21:19;;;;;;;;;;;;;;;19.61;64.98;101069.88;7406805;19;1864;-59
2022/05/13 04:23:52;;;;;;;;;;;;;;;19.66;65.13;101083.75;7405655;19;1717;-59
2022/05/13 04:26:20;;;;;;;;;;;;;;;19.64;65.04;101091.94;7406844;19;1565;-59
2022/05/13 04:28:50;;;;;;;;;;;;;;;19.70;64.77;101079.81;7405712;19;1683;-59
2022/05/13 04:31:20;;;;;;;;;;;;;;;19.71;64.69;101094.09;7406390;19;1490;-59
2022/05/13 04:33:49;;;;;;;;;;;;;;;19.72;64.67;101074.38;7406042;19;1600;-59
2022/05/13 04:36:18;;;;;;;;;;;;;;;19.77;64.69;101089.06;7406840;19;1705;-60
2022/05/13 04:38:46;;;;;;;;;;;;;;;19.80;64.30;101072.72;7405975;19;1702;-58
2022/05/13 04:43:59;;;;;;;;;;;;;;;19.90;64.07;101071.91;7405428;19;1679;-59
2022/05/13 04:46:27;;;;;;;;;;;;;;;19.92;64.05;101070.78;7404555;19;1313;-59
2022/05/13 04:48:56;;;;;;;;;;;;;;;19.99;63.82;101079.97;7405128;19;1251;-58
2022/05/13 04:51:25;;;;;;;;;;;;;;;20.04;63.99;101076.91;7404751;19;1243;-58
2022/05/13 04:53:54;;;;;;;;;;;;;;;20.05;63.95;101067.84;7402613;19;1254;-59
2022/05/13 04:56:25;;;;;;;;;;;;;;;20.11;63.58;101079.91;7405696;19;1293;-58
2022/05/13 04:58:54;;;;;;;;;;;;;;;20.15;63.68;101081.31;7402495;19;1485;-59
2022/05/13 05:01:24;;;;;;;;;;;;;;;20.20;63.68;101084.47;7399906;19;1603;-61
2022/05/13 05:03:52;;;;;;;;;;;;;;;20.18;63.86;101075.69;7400280;19;1845;-59
2022/05/13 05:06:22;;;;;;;;;;;;;;;20.24;63.12;101077.84;7404155;19;1561;-58
2022/05/13 05:08:51;;;;;;;;;;;;;;;20.24;63.75;101073.31;7403081;19;1348;-58
2022/05/13 05:11:19;;;;;;;;;;;;;;;20.27;63.61;101086.47;7403806;19;1412;-58
2022/05/13 05:13:53;;;;;;;;;;;;;;;20.34;63.55;101086.78;7403749;19;1660;-57
2022/05/13 05:16:22;;;;;;;;;;;;;;;20.34;64.61;101070.66;7404773;19;1463;-59
2022/05/13 05:18:50;;;;;;;;;;;;;;;20.29;65.74;101083.63;7404434;19;1513;-58
2022/05/13 05:21:19;;;;;;;;;;;;;;;20.38;65.03;101081.97;7405509;19;1498;-58
2022/05/13 05:23:48;;;;;;;;;;;;;;;20.39;65.16;101089.91;7401375;19;1855;-59
2022/05/13 05:26:17;;;;;;;;;;;;;;;20.39;65.10;101078.28;7403237;19;1502;-59
2022/05/13 05:28:46;;;;;;;;;;;;;;;20.41;65.30;101089.75;7402566;19;1361;-60
2022/05/13 05:31:17;;;;;;;;;;;;;;;20.48;65.40;101076.63;7403903;19;1628;-62
2022/05/13 05:33:45;;;;;;;;;;;;;;;20.56;65.55;101084.84;7402453;19;1488;-58
2022/05/13 05:36:14;;;;;;;;;;;;;;;20.50;65.24;101082.72;7404452;19;1664;-58
2022/05/13 05:38:42;;;;;;;;;;;;;;;20.55;65.51;101084.03;7403772;19;1607;-59
2022/05/13 05:41:10;;;;;;;;;;;;;;;20.58;65.47;101082.88;7403358;19;1607;-59
2022/05/13 05:43:39;;;;;;;;;;;;;;;20.52;65.84;101078.91;7397237;19;1871;-59
2022/05/13 05:46:07;;;;;;;;;;;;;;;20.53;65.68;101077.06;7400033;19;1513;-58
2022/05/13 05:48:38;;;;;;;;;;;;;;;20.52;65.74;101094.19;7400335;19;1549;-60
2022/05/13 05:51:07;;;;;;;;;;;;;;;20.51;65.70;101062.91;7400774;19;1503;-60
2022/05/13 05:59:00;;;;;;;;;;;;;;;20.58;65.85;101077.50;7409620;19;1365;-57
2022/05/13 06:01:28;;;;;;;;;;;;;;;20.62;65.89;101063.69;7407895;19;1518;-60
2022/05/13 06:04:00;;;;;;;;;;;;;;;20.69;65.36;101073.88;7407592;19;1861;-56
2022/05/13 06:06:28;;;;;;;;;;;;;;;20.81;66.66;101073.63;7410727;19;1530;-61
2022/05/13 06:08:57;;;;;;;;;;;;;;;20.85;66.72;101074.19;7410064;19;1384;-60
2022/05/13 06:11:26;;;;;;;;;;;;;;;20.90;66.59;101057.63;7411321;19;1625;-59
2022/05/13 06:13:55;;;;;;;;;;;;;;;20.90;67.09;101066.53;7410284;19;1767;-62
2022/05/13 06:16:25;;;;;;;;;;;;;;;20.97;66.74;101077.56;7410150;19;1643;-61
2022/05/13 06:18:54;;;;;;;;;;;;;;;20.96;67.04;101084.78;7409984;19;1534;-57
2022/05/13 06:21:25;;;;;;;;;;;;;;;20.99;67.48;101076.47;7411315;19;1510;-56
2022/05/13 06:23:54;;;;;;;;;;;;;;;21.13;67.09;101079.69;7407027;19;1841;-61
2022/05/13 06:26:22;;;;;;;;;;;;;;;21.10;66.41;101072.78;7409609;19;1651;-64
2022/05/13 06:28:51;;;;;;;;;;;;;;;21.03;66.32;101077.88;7410023;19;1533;-60
2022/05/13 06:31:20;;;;;;;;;;;;;;;21.05;66.27;101070.50;7409014;19;1544;-60
2022/05/13 06:33:49;;;;;;;;;;;;;;;21.08;66.47;101090.03;7408460;19;1590;-68
2022/05/13 06:36:18;;;;;;;;;;;;;;;21.03;66.68;101075.19;7408226;19;1342;-69
2022/05/13 06:38:49;;;;;;;;;;;;;;;21.01;66.27;101063.72;7408937;19;1426;-68
2022/05/13 06:41:17;;;;;;;;;;;;;;;21.11;66.64;101068.22;7409398;19;1444;-63
2022/05/13 06:43:46;;;;;;;;;;;;;;;21.13;66.11;101052.81;7408007;19;1849;-60
2022/05/13 06:46:14;;;;;;;;;;;;;;;21.08;66.64;101063.16;7409449;19;1525;-62
2022/05/13 06:48:43;;;;;;;;;;;;;;;21.02;66.49;101051.97;7407854;19;1547;-67
2022/05/13 06:51:11;;;;;;;;;;;;;;;20.97;66.73;101056.94;7409914;19;1479;-62
2022/05/13 06:53:39;;;;;;;;;;;;;;;21.03;66.51;101060.91;7407783;19;1565;-58
2022/05/13 06:56:11;;;;;;;;;;;;;;;21.05;66.62;101067.81;7406246;19;1334;-57
2022/05/13 06:58:39;;;;;;;;;;;;;;;21.03;66.51;101050.16;7408057;19;1488;-59
2022/05/13 07:01:07;;;;;;;;;;;;;;;20.99;66.57;101054.94;7405217;19;1470;-57
2022/05/13 07:03:36;;;;;;;;;;;;;;;20.98;66.72;101055.94;7404445;19;1857;-60
2022/05/13 07:06:04;;;;;;;;;;;;;;;20.94;66.65;101040.22;7408774;19;1307;-57
2022/05/13 07:08:33;;;;;;;;;;;;;;;20.90;66.30;101049.56;7405853;19;1617;-60
2022/05/13 07:11:01;;;;;;;;;;;;;;;20.85;66.42;101039.25;7409064;19;1420;-60
2022/05/13 07:13:32;;;;;;;;;;;;;;;20.90;66.33;101058.47;7409106;19;1568;-60
2022/05/13 07:16:01;;;;;;;;;;;;;;;20.85;66.65;101052.69;7409361;19;1381;-58
2022/05/13 07:18:30;;;;;;;;;;;;;;;20.85;66.66;101052.69;7406653;19;1648;-57
2022/05/13 07:20:58;;;;;;;;;;;;;;;20.86;66.71;101049.00;7409364;19;1712;-60
2022/05/13 07:23:26;;;;;;;;;;;;;;;20.85;66.50;101063.44;7404388;19;1859;-58
2022/05/13 07:25:55;;;;;;;;;;;;;;;20.84;66.41;101057.19;7408499;19;1424;-57
2022/05/13 07:28:24;;;;;;;;;;;;;;;20.83;66.52;101060.88;7409290;19;1612;-60
2022/05/13 07:30:54;;;;;;;;;;;;;;;20.87;66.41;101066.84;7408748;19;1353;-60
2022/05/13 07:33:24;;;;;;;;;;;;;;;20.83;66.36;101054.63;7408165;19;1419;-60
2022/05/13 07:35:52;;;;;;;;;;;;;;;20.84;66.40;101059.03;7409483;19;957;-59
2022/05/13 07:38:21;;;;;;;;;;;;;;;20.83;66.49;101052.81;7405614;19;1644;-57
2022/05/13 07:43:30;;;;;;;;;;;;;;;20.88;66.33;101054.25;7407476;19;1851;-60
2022/05/13 07:46:01;;;;;;;;;;;;;;;20.85;66.20;101055.38;7407928;19;1391;-60
2022/05/13 07:48:30;;;;;;;;;;;;;;;20.89;66.03;101064.00;7408464;19;1591;-60
2022/05/13 07:50:58;;;;;;;;;;;;;;;20.91;65.90;101073.63;7408662;19;972;-60
2022/05/13 07:53:26;;;;;;;;;;;;;;;20.91;65.81;101059.31;7405210;19;1695;-60
2022/05/13 07:55:55;;;;;;;;;;;;;;;20.88;66.06;101068.53;7408084;19;1316;-57
2022/05/13 07:58:23;;;;;;;;;;;;;;;20.86;66.04;101057.06;7407844;19;1540;-60
2022/05/13 08:00:51;;;;;;;;;;;;;;;20.85;66.24;101064.28;7407340;19;1671;-57
2022/05/13 08:03:22;;;;;;;;;;;;;;;20.85;66.08;101052.69;7404911;19;1864;-60
2022/05/13 08:05:52;;;;;;;;;;;;;;;20.83;66.17;101046.56;7406542;19;1620;-60
2022/05/13 08:08:21;;;;;;;;;;;;;;;20.81;66.32;101057.50;7406649;19;1635;-61
2022/05/13 08:10:50;;;;;;;;;;;;;;;20.83;66.22;101041.19;7407454;19;1540;-60
2022/05/13 08:13:19;;;;;;;;;;;;;;;20.83;65.95;101057.31;7406339;19;1603;-57
2022/05/13 08:15:48;;;;;;;;;;;;;;;20.82;66.08;101048.44;7406774;19;1631;-60
2022/05/13 08:18:17;;;;;;;;;;;;;;;20.82;65.89;101058.34;7407927;19;999;-60
2022/05/13 08:20:48;;;;;;;;;;;;;;;20.82;65.95;101037.66;7406999;19;1502;-59
2022/05/13 08:23:17;;;;;;;;;;;;;;;20.81;66.08;101035.13;7406117;19;1877;-60
2022/05/13 08:25:46;;;;;;;;;;;;;;;20.82;66.20;101045.72;7405725;19;1631;-57
2022/05/13 08:28:14;;;;;;;;;;;;;;;20.79;65.88;101027.22;7406202;19;1616;-61
2022/05/13 08:30:43;;;;;;;;;;;;;;;20.81;66.37;101040.50;7405840;19;1502;-60
2022/05/13 08:33:11;;;;;;;;;;;;;;;20.79;65.84;101032.59;7406356;19;1492;-60
2022/05/13 08:35:40;;;;;;;;;;;;;;;20.80;66.16;101034.28;7406101;19;1666;-57
2022/05/13 08:38:12;;;;;;;;;;;;;;;20.79;66.21;101034.41;7405292;19;1545;-57
2022/05/13 08:40:49;;;;;;;;;;;;;;;20.78;66.43;101011.22;7406049;19;1443;-60
2022/05/13 08:43:18;;;;;;;;;;;;;;;20.79;65.93;101019.16;7406173;19;1839;-60
2022/05/13 08:45:51;;;;;;;;;;;;;;;20.78;65.89;101024.66;7405938;19;1587;-61
2022/05/13 08:48:20;;;;;;;;;;;;;;;20.79;65.85;101034.41;7405476;19;1540;-61
2022/05/13 08:50:53;;;;;;;;;;;;;;;20.76;66.08;101040.94;7405034;19;1514;-58
2022/05/13 08:53:30;;;;;;;;;;;;;;;20.77;66.41;101029.19;7404923;19;1747;-58
2022/05/13 08:56:01;;;;;;;;;;;;;;;20.77;66.21;101033.69;7404607;19;1542;-57
2022/05/13 08:58:31;;;;;;;;;;;;;;;20.77;66.18;101028.31;7405022;19;1533;-60
2022/05/13 09:01:01;;;;;;;;;;;;;;;20.75;66.23;101022.25;7404147;19;1524;-60
2022/05/13 09:03:37;;;;;;;;;;;;;;;20.71;66.21;101020.84;7404790;19;1853;-60
2022/05/13 09:06:06;;;;;;;;;;;;;;;20.72;66.13;101033.28;7406002;19;1635;-57
2022/05/13 09:08:37;;;;;;;;;;;;;;;20.72;66.07;101018.00;7404541;19;1540;-57
2022/05/13 09:11:14;;;;;;;;;;;;;;;20.74;66.21;101015.19;7402385;19;1274;-60
2022/05/13 09:13:46;;;;;;;;;;;;;;;20.71;66.05;101016.31;7404780;19;1661;-60
2022/05/13 09:16:17;;;;;;;;;;;;;;;20.70;66.28;101011.09;7403740;19;1513;-57
2022/05/13 09:18:51;;;;;;;;;;;;;;;20.69;66.16;101017.44;7404429;19;1660;-57
2022/05/13 09:21:20;;;;;;;;;;;;;;;20.71;65.98;101010.09;7404587;19;1640;-57
2022/05/13 09:23:51;;;;;;;;;;;;;;;20.69;66.18;101006.69;7402453;19;1859;-57
2022/05/13 09:26:21;;;;;;;;;;;;;;;20.66;66.38;101010.50;7403257;19;1396;-60
2022/05/13 09:29:06;;;;;;;;;;;;;;;20.64;66.22;101002.59;7404329;19;1623;-59
2022/05/13 09:31:35;;;;;;;;;;;;;;;20.62;66.36;101015.31;7401928;19;1677;-60
2022/05/13 09:34:04;;;;;;;;;;;;;;;20.61;66.54;101002.00;7403202;19;1584;-57
2022/05/13 09:36:33;;;;;;;;;;;;;;;20.63;66.15;100995.53;7405034;19;1512;-60
2022/05/13 09:39:18;;;;;;;;;;;;;;;20.63;66.21;100997.34;7404414;19;1605;-60
2022/05/13 09:41:48;;;;;;;;;;;;;;;20.63;66.25;100978.53;7403607;19;1537;-60
2022/05/13 09:44:21;;;;;;;;;;;;;;;20.66;66.56;100984.47;7401816;19;1868;-58
2022/05/13 09:46:50;;;;;;;;;;;;;;;20.74;66.21;100991.00;7403034;19;1520;-57
2022/05/13 09:49:26;;;;;;;;;;;;;;;20.69;65.75;100974.44;7403848;19;1529;-59
2022/05/13 09:51:57;;;;;;;;;;;;;;;20.73;65.67;100984.78;7404873;19;1740;-60
2022/05/13 09:54:31;;;;;;;;;;;;;;;20.76;65.46;100978.28;7401473;19;1786;-62
2022/05/13 09:57:10;;;;;;;;;;;;;;;20.74;65.39;100972.19;7403681;19;1524;-62
2022/05/13 09:59:40;;;;;;;;;;;;;;;20.79;65.72;100977.97;7404567;19;1532;-59
2022/05/13 10:02:29;;;;;;;;;;;;;;;20.86;65.09;100957.59;7400492;19;1540;-58
2022/05/13 10:05:12;;;;;;;;;;;;;;;20.78;64.96;100955.63;7398735;19;1873;-58
2022/05/13 10:07:44;;;;;;;;;;;;;;;20.74;65.33;100948.00;7404565;19;1497;-58
2022/05/13 10:15:41;;;;;;;;;;;;;;;20.74;65.53;100942.63;7403162;19;1509;-61
2022/05/13 10:18:16;;;;;;;;;;;;;;;20.66;65.94;100936.13;7402179;19;1205;-61
2022/05/13 10:20:46;;;;;;;;;;;;;;;20.72;65.81;100940.06;7402897;19;1444;-59
2022/05/13 10:23:18;;;;;;;;;;;;;;;20.68;65.98;100935.13;7399143;19;1774;-58
2022/05/13 10:25:54;;;;;;;;;;;;;;;20.68;66.17;100922.53;7401041;19;1715;-58
2022/05/13 10:28:25;;;;;;;;;;;;;;;20.65;66.25;100939.81;7399806;19;1312;-60
2022/05/13 10:30:57;;;;;;;;;;;;;;;20.63;66.35;100933.72;7398524;19;1358;-61
2022/05/13 10:33:28;;;;;;;;;;;;;;;20.64;66.46;100937.25;7397367;19;1569;-61
2022/05/13 10:35:59;;;;;;;;;;;;;;;20.61;66.84;100935.72;7400872;19;1365;-61
2022/05/13 10:38:33;;;;;;;;;;;;;;;20.55;66.83;100917.44;7401820;19;1397;-61
2022/05/13 10:41:10;;;;;;;;;;;;;;;20.50;67.09;100914.31;7403309;19;1530;-61
2022/05/13 10:43:41;;;;;;;;;;;;;;;20.47;66.84;100895.78;7404780;19;1871;-61
2022/05/13 10:46:15;;;;;;;;;;;;;;;20.47;66.90;100909.22;7406976;19;1402;-57
2022/05/13 10:48:44;;;;;;;;;;;;;;;20.44;67.60;100899.63;7406959;19;1439;-56
2022/05/13 10:51:19;;;;;;;;;;;;;;;20.44;67.35;100904.97;7409633;19;1326;-61
2022/05/13 10:54:01;;;;;;;;;;;;;;;20.42;67.19;100900.75;7407677;19;1354;-61
2022/05/13 10:56:37;;;;;;;;;;;;;;;20.44;67.33;100904.16;7407325;19;1321;-61
2022/05/13 10:59:10;;;;;;;;;;;;;;;20.43;67.15;100897.06;7407755;19;1198;-61
2022/05/13 11:01:44;;;;;;;;;;;;;;;20.41;66.96;100886.47;7404965;19;1322;-61
2022/05/13 11:06:57;;;;;;;;;;;;;;;20.60;67.31;100880.25;7396403;19;1675;-37
2022/05/13 11:09:32;;;;;;;;;;;;;;;20.71;66.92;100890.03;7405928;19;1528;-37
2022/05/13 11:15:25;;;;;;;;;;;;;;;20.62;67.23;100883.66;7405479;19;1705;-37
2022/05/13 11:18:13;;;;;;;;;;;;;;;20.60;67.53;100880.25;7401537;19;2330;-38
2022/05/13 11:20:51;;;;;;;;;;;;;;;20.55;67.62;100858.34;7402974;19;1425;-38
2022/05/13 11:23:36;;;;;;;;;;;;;;;20.58;67.80;100851.81;7403715;19;1507;-37
2022/05/13 11:26:23;;;;;;;;;;;;;;;20.62;67.66;100858.63;7404130;19;1525;-37
2022/05/13 11:29:05;;;;;;;;;;;;;;;20.62;67.44;100864.84;7401519;19;1589;-38
2022/05/13 11:32:04;;;;;;;;;;;;;;;20.60;67.59;100836.44;7401015;19;1468;-37
2022/05/13 11:34:46;;;;;;;;;;;;;;;20.59;68.60;100838.28;7400936;19;1564;-36
2022/05/13 11:37:18;;;;;;;;;;;;;;;20.65;68.08;100840.38;7403458;19;1686;-37
2022/05/13 11:40:15;;;;;;;;;;;;;;;20.65;68.11;100837.69;7401897;19;1632;-36
2022/05/13 11:45:34;;;;;;;;;;;;;;;20.65;67.98;100824.25;7404052;19;2158;-36
2022/05/13 11:48:18;;;;;;;;;;;;;;;20.71;67.85;100825.53;7405587;19;1545;-36
2022/05/13 11:50:53;;;;;;;;;;;;;;;20.73;68.54;100822.66;7404980;19;1738;-37
2022/05/13 11:53:38;;;;;;;;;;;;;;;20.66;68.60;100828.63;7400434;19;1778;-37
2022/05/13 11:56:23;;;;;;;;;;;;;;;20.65;68.18;100816.19;7403539;19;1764;-37
2022/05/13 11:59:01;;;;;;;;;;;;;;;20.71;67.84;100809.41;7403476;19;1693;-37
2022/05/13 12:01:49;;;;;;;;;;;;;;;20.73;67.89;100817.28;7401257;19;1723;-36
2022/05/13 12:04:33;;;;;;;;;;;;;;;20.65;68.08;100799.22;7403671;19;1862;-37
2022/05/13 12:07:23;;;;;;;;;;;;;;;20.69;67.96;100799.78;7404799;19;969;-37
2022/05/13 12:09:55;;;;;;;;;;;;;;;20.68;68.43;100779.28;7402983;19;1717;-37
2022/05/13 12:12:38;;;;;;;;;;;;;;;20.69;67.98;100789.03;7403154;19;1734;-37
2022/05/13 12:15:12;;;;;;;;;;;;;;;20.69;68.06;100780.97;7403516;19;1725;-37
2022/05/13 12:17:44;;;;;;;;;;;;;;;20.65;67.68;100777.72;7401426;19;1928;-38
2022/05/13 12:20:20;;;;;;;;;;;;;;;20.64;68.25;100792.16;7401554;19;2038;-37
2022/05/13 12:23:07;;;;;;;;;;;;;;;20.64;68.12;100782.25;7403284;19;1514;-37
2022/05/13 12:26:02;;;;;;;;;;;;;;;20.60;68.53;100772.78;7402024;19;1930;-37
2022/05/13 12:28:51;;;;;;;;;;;;;;;20.57;68.21;100773.06;7402134;19;1714;-37
2022/05/13 12:31:41;;;;;;;;;;;;;;;20.56;67.94;100771.34;7400291;19;1552;-37
2022/05/13 12:40:02;;;;;;;;;;;;;;;20.57;68.25;100756.94;7402793;19;1600;-37
2022/05/13 12:42:44;;;;;;;;;;;;;;;20.54;68.51;100746.47;7400901;19;1748;-37
2022/05/13 12:45:24;;;;;;;;;;;;;;;20.57;68.05;100750.69;7400715;19;1849;-37
2022/05/13 12:48:03;;;;;;;;;;;;;;;20.55;68.27;100745.50;7402696;19;1443;-37
2022/05/13 12:50:40;;;;;;;;;;;;;;;20.52;68.15;100735.03;7401992;19;1362;-37
2022/05/13 12:53:24;;;;;;;;;;;;;;;20.64;68.12;100738.41;7400484;19;1721;-36
2022/05/13 12:55:57;;;;;;;;;;;;;;;20.65;67.96;100732.91;7398348;19;1867;-36
2022/05/13 12:58:31;;;;;;;;;;;;;;;20.62;67.94;100726.97;7400672;19;1593;-36
2022/05/13 13:01:03;;;;;;;;;;;;;;;20.57;68.11;100727.41;7400269;19;1549;-36
2022/05/13 13:03:41;;;;;;;;;;;;;;;20.64;67.81;100717.75;7402124;19;2171;-36
2022/05/13 13:06:16;;;;;;;;;;;;;;;20.62;67.76;100714.38;7399408;19;1863;-36
2022/05/13 13:08:46;;;;;;;;;;;;;;;20.60;68.20;100718.22;7400108;19;1917;-36
2022/05/13 13:11:24;;;;;;;;;;;;;;;20.59;68.26;100724.56;7399896;19;2001;-36
2022/05/13 13:13:57;;;;;;;;;;;;;;;20.58;68.24;100699.53;7401635;19;1703;-36
2022/05/13 13:16:33;;;;;;;;;;;;;;;20.61;68.07;100701.97;7398971;19;1706;-36
2022/05/13 13:19:13;;;;;;;;;;;;;;;20.60;68.44;100700.25;7400269;19;1910;-37
2022/05/13 13:21:53;;;;;;;;;;;;;;;20.66;68.15;100691.59;7401399;19;1106;-36
2022/05/13 13:24:22;;;;;;;;;;;;;;;20.60;68.58;100677.91;7396465;19;1855;-36
2022/05/13 13:27:02;;;;;;;;;;;;;;;20.60;68.41;100659.94;7398581;19;1827;-36
2022/05/13 13:29:37;;;;;;;;;;;;;;;20.71;68.08;100672.34;7400237;19;1830;-36
2022/05/13 13:32:17;;;;;;;;;;;;;;;20.77;67.95;100678.94;7398936;19;1536;-36
2022/05/13 13:34:56;;;;;;;;;;;;;;;20.68;68.04;100679.88;7399580;19;1501;-37
2022/05/13 13:37:28;;;;;;;;;;;;;;;20.57;68.52;100664.72;7401299;19;1380;-36
2022/05/13 13:40:00;;;;;;;;;;;;;;;20.56;68.44;100669.28;7400359;19;1956;-37
2022/05/13 13:42:35;;;;;;;;;;;;;;;20.63;68.09;100659.66;7397597;19;1681;-37
2022/05/13 13:45:09;;;;;;;;;;;;;;;20.61;68.23;100658.97;7398876;19;1877;-36
2022/05/13 13:47:44;;;;;;;;;;;;;;;20.57;68.44;100660.22;7399857;19;1781;-36
2022/05/13 13:50:19;;;;;;;;;;;;;;;20.63;68.14;100670.41;7399939;19;2059;-36
2022/05/13 13:52:53;;;;;;;;;;;;;;;20.66;68.38;100662.03;7398931;19;1874;-36
2022/05/13 13:55:22;;;;;;;;;;;;;;;20.70;68.15;100656.38;7400074;19;1588;-37
2022/05/13 13:58:15;;;;;;;;;;;;;;;20.63;68.20;100635.47;7398826;19;1811;-37